M I D A S
Marine Information and Data Acquisition System
Tripno 1829 of the Zeeleeuw from 2009-12-18 07:37:33 to 2009-12-18 15:35:12
Back to CruiseResearch ActivitiesStationsMapUnderway DataData graphs

EquipmentUnitsComment
TimeDGPSUTC
LatitudeDGPSDM.mWGS84
LongitudeDGPSDM.mWGS84
TemperatureSBE03/SBE38deg celciusITS90
ConductivitySBE21S/mITS90
SalinitySBE21 Practical Salinity Units
ChlorophylAChelsea fluorimeterg/lCalibrated in Aceton
Missing or incorrect values are displayed as -999
Sea surface data collected by the RV Zeeleeuw from 2009-12-18 07:40:09 to 2009-12-18 15:38:23
Time Latitude Longitude Temperature Conductivity Salinity ChlorophylA
2009-12-18 07:41:18 51°13.679 2°55.881 13.5413 1.289967 11.927385 0.879931
2009-12-18 07:42:18 51°13.708 2°55.784 13.5322 1.289761 11.92732 0.879931
2009-12-18 07:43:18 51°13.755 2°55.7 13.5469 1.289348 11.925523 0.879931
2009-12-18 07:44:26 51°13.834 2°55.643 13.5423 1.289039 11.924758 0.879931
2009-12-18 07:45:29 51°13.903 2°55.624 13.5775 1.288729 11.923993 0.879931
2009-12-18 07:46:27 51°13.941 2°55.628 13.6045 1.288626 11.924627 0.879931
2009-12-18 07:47:26 51°13.946 2°55.616 13.4693 1.288214 11.921163 0.879931
2009-12-18 07:48:29 51°13.968 2°55.562 13.5407 1.288007 11.920764 0.879931
2009-12-18 07:49:28 51°14.059 2°55.477 13.4412 1.287285 11.916199 0.879931
2009-12-18 07:50:29 51°14.197 2°55.356 13.4452 1.286564 11.911967 0.879931
2009-12-18 07:51:27 51°14.304 2°55.181 13.2493 1.208806 11.131909 0.879931
2009-12-18 07:52:27 51°14.409 2°54.954 13.194 1.194988 10.994439 0.879931
2009-12-18 07:53:26 51°14.566 2°54.852 13.1262 1.253253 11.618338 0.879931
2009-12-18 07:54:25 51°14.73 2°54.802 11.6993 1.250056 11.607476 0.879931
2009-12-18 07:55:25 51°14.9 2°54.766 6.4911 3.228228 30.037672 1.158523
2009-12-18 07:56:25 51°15.068 2°54.735 6.2734 3.115505 30.748987 1.193347
2009-12-18 07:57:25 51°15.233 2°54.674 6.1953 3.127308 31.019265 1.297819
2009-12-18 07:58:25 51°15.398 2°54.578 6.1874 3.132795 31.151698 1.576412
2009-12-18 07:59:25 51°15.558 2°54.489 6.1894 3.135694 31.195673 1.47194
2009-12-18 08:00:25 51°15.723 2°54.42 6.217 3.141078 31.269649 1.332643
2009-12-18 08:01:25 51°15.891 2°54.355 6.2419 3.148324 31.338206 1.193347
2009-12-18 08:02:25 51°16.058 2°54.293 6.266 3.157331 31.415697 1.088875
2009-12-18 08:03:25 51°16.179 2°54.241 6.2723 3.167166 31.50834 1.054051
2009-12-18 08:04:25 51°16.222 2°54.234 6.2764 3.174103 31.582989 1.054051
2009-12-18 08:05:25 51°16.226 2°54.247 6.2685 3.177105 31.616062 1.088875
2009-12-18 08:06:25 51°16.211 2°54.236 6.258 3.176898 31.624274 1.088875
2009-12-18 08:07:25 51°16.192 2°54.207 6.2513 3.176795 31.629256 1.088875
2009-12-18 08:08:25 51°16.171 2°54.165 6.2556 3.174931 31.612215 1.088875
2009-12-18 08:09:25 51°16.151 2°54.112 6.2554 3.176484 31.632834 1.088875
2009-12-18 08:10:25 51°16.131 2°54.063 6.2466 3.177002 31.642043 1.088875
2009-12-18 08:11:25 51°16.084 2°54.009 6.2482 3.17576 31.630971 1.088875
2009-12-18 08:12:25 51°16.053 2°53.898 6.2541 3.176899 31.64528 1.123699
2009-12-18 08:13:25 51°16.093 2°53.793 6.2463 3.178348 31.651628 1.123699
2009-12-18 08:14:25 51°16.19 2°53.632 6.2418 3.177209 31.646953 1.123699
2009-12-18 08:15:25 51°16.322 2°53.456 6.2194 3.175035 31.629108 1.123699
2009-12-18 08:16:25 51°16.461 2°53.284 6.2165 3.17048 31.603374 1.123699
2009-12-18 08:17:25 51°16.599 2°53.103 6.2763 3.174518 31.633908 1.054051
2009-12-18 08:18:25 51°16.735 2°52.926 6.3454 3.18984 31.746737 0.914755
2009-12-18 08:19:25 51°16.869 2°52.754 6.4052 3.203506 31.844577 0.810283
2009-12-18 08:20:25 51°17.006 2°52.591 6.4663 3.216862 31.928231 0.775459
2009-12-18 08:21:25 51°17.14 2°52.446 6.5071 3.225456 31.97255 0.810283
2009-12-18 08:22:25 51°17.278 2°52.299 6.5395 3.231254 32.001922 0.845107
2009-12-18 08:23:25 51°17.409 2°52.154 6.5664 3.240573 32.076885 0.845107
2009-12-18 08:24:25 51°17.549 2°52.006 6.5994 3.244818 32.097036 0.845107
2009-12-18 08:25:25 51°17.687 2°51.856 6.6318 3.251548 32.139105 0.810283
2009-12-18 08:26:25 51°17.826 2°51.706 6.654 3.254551 32.144717 0.740634
2009-12-18 08:27:25 51°17.968 2°51.555 6.6484 3.259521 32.182397 0.70581
2009-12-18 08:28:25 51°18.108 2°51.402 6.6084 3.258279 32.180237 0.740634
2009-12-18 08:29:25 51°18.249 2°51.25 6.5747 3.249788 32.123344 0.740634
2009-12-18 08:30:25 51°18.357 2°51.12 6.5466 3.243575 32.083418 0.740634
2009-12-18 08:31:25 51°18.453 2°51.002 6.5395 3.239227 32.057727 0.70581
2009-12-18 08:32:25 51°18.51 2°50.981 6.5375 3.238191 32.038467 0.70581
2009-12-18 08:33:25 51°18.498 2°51.013 6.5349 3.236535 32.038755 0.70581
2009-12-18 08:34:25 51°18.463 2°50.991 6.535 3.236431 32.042894 0.70581
2009-12-18 08:35:25 51°18.433 2°50.952 6.5352 3.235603 32.03293 0.70581
2009-12-18 08:36:25 51°18.406 2°50.907 6.5365 3.235913 32.036337 0.70581
2009-12-18 08:37:25 51°18.381 2°50.859 6.5346 3.235603 32.031172 0.670986
2009-12-18 08:38:25 51°18.341 2°50.81 6.5325 3.236017 32.036593 0.670986
2009-12-18 08:39:25 51°18.291 2°50.703 6.5377 3.234567 32.021574 0.670986
2009-12-18 08:40:25 51°18.307 2°50.483 6.5397 3.2326 31.999121 0.70581
2009-12-18 08:41:25 51°18.33 2°50.179 6.5578 3.23612 32.031577 0.670986
2009-12-18 08:42:25 51°18.34 2°49.862 6.6019 3.240987 32.061202 0.670986
2009-12-18 08:43:25 51°18.341 2°49.544 6.6379 3.248856 32.108742 0.670986
2009-12-18 08:44:25 51°18.347 2°49.231 6.6718 3.251341 32.105198 0.670986
2009-12-18 08:45:25 51°18.353 2°48.919 6.6969 3.260764 32.17928 0.670986
2009-12-18 08:46:36 51°18.374 2°48.553 6.7312 3.265941 32.200721 0.670986
2009-12-18 08:47:38 51°18.407 2°48.245 6.7401 3.271118 32.236189 0.670986
2009-12-18 08:48:38 51°18.439 2°47.939 6.7467 3.272775 32.247251 0.670986
2009-12-18 08:49:38 51°18.466 2°47.632 6.757 3.274018 32.249393 0.70581
2009-12-18 08:50:38 51°18.453 2°47.312 6.7769 3.275364 32.258815 0.70581
2009-12-18 08:51:38 51°18.437 2°46.99 6.813 3.277331 32.258321 0.70581
2009-12-18 08:52:38 51°18.437 2°46.668 6.8519 3.281059 32.263859 0.636162
2009-12-18 08:53:38 51°18.447 2°46.346 6.8931 3.287168 32.297964 0.566514
2009-12-18 08:54:38 51°18.456 2°46.022 6.9372 3.295763 32.34854 0.53169
2009-12-18 08:55:38 51°18.468 2°45.697 6.9789 3.30384 32.396905 0.53169
2009-12-18 08:56:38 51°18.48 2°45.372 7.0158 3.311607 32.442692 0.53169
2009-12-18 08:57:38 51°18.49 2°45.048 7.0738 3.316474 32.465707 0.53169
2009-12-18 08:58:38 51°18.506 2°44.729 7.1783 3.324033 32.478443 0.566514
2009-12-18 08:59:38 51°18.518 2°44.413 7.2501 3.333871 32.493958 0.53169
2009-12-18 09:00:38 51°18.538 2°44.101 7.2937 3.340913 32.508054 0.53169
2009-12-18 09:01:38 51°18.557 2°43.789 7.3216 3.345677 32.519348 0.496866
2009-12-18 09:02:38 51°18.567 2°43.473 7.3662 3.349923 32.538981 0.496866
2009-12-18 09:03:38 51°18.582 2°43.157 7.4171 3.357897 32.575224 0.462042
2009-12-18 09:04:38 51°18.593 2°42.837 7.4544 3.364422 32.606247 0.462042
2009-12-18 09:05:38 51°18.606 2°42.514 7.4758 3.369393 32.630099 0.427218
2009-12-18 09:06:38 51°18.618 2°42.192 7.5088 3.374364 32.660012 0.427218
2009-12-18 09:07:38 51°18.627 2°41.874 7.5657 3.380786 32.697627 0.427218
2009-12-18 09:08:38 51°18.636 2°41.554 7.6389 3.390729 32.745107 0.392394
2009-12-18 09:09:38 51°18.647 2°41.235 7.7025 3.400982 32.789716 0.392394
2009-12-18 09:10:38 51°18.657 2°40.913 7.7575 3.411029 32.839813 0.392394
2009-12-18 09:11:38 51°18.668 2°40.594 7.8002 3.419005 32.874628 0.392394
2009-12-18 09:12:38 51°18.641 2°40.285 7.8283 3.426048 32.912451 0.392394
2009-12-18 09:13:38 51°18.478 2°40.1 7.8435 3.429881 32.93422 0.392394
2009-12-18 09:14:38 51°18.309 2°39.905 7.8543 3.43361 32.957473 0.392394
2009-12-18 09:15:38 51°18.162 2°39.677 7.8618 3.435267 32.965583 0.392394
2009-12-18 09:16:38 51°18.032 2°39.423 7.8501 3.436096 32.972676 0.392394
2009-12-18 09:17:38 51°17.906 2°39.158 7.8433 3.436614 32.982537 0.392394
2009-12-18 09:18:38 51°17.775 2°38.892 7.8468 3.437132 32.995009 0.392394
2009-12-18 09:19:38 51°17.642 2°38.632 7.8366 3.438168 33.00866 0.392394
2009-12-18 09:20:38 51°17.508 2°38.373 7.8377 3.439203 33.020573 0.392394
2009-12-18 09:21:38 51°17.372 2°38.114 7.8384 3.44055 33.028838 0.392394
2009-12-18 09:22:38 51°17.238 2°37.855 7.8302 3.440654 33.041258 0.392394
2009-12-18 09:23:38 51°17.08 2°37.63 7.8285 3.441483 33.049224 0.392394
2009-12-18 09:24:38 51°16.907 2°37.427 7.834 3.442104 33.061079 0.392394
2009-12-18 09:25:38 51°16.737 2°37.231 7.8291 3.442518 33.064627 0.392394
2009-12-18 09:26:38 51°16.607 2°37.07 7.8177 3.441379 33.056831 0.392394
2009-12-18 09:27:38 51°16.524 2°36.982 7.8178 3.439929 33.049203 0.392394
2009-12-18 09:28:38 51°16.492 2°36.932 7.8183 3.439204 33.044082 0.392394
2009-12-18 09:29:38 51°16.471 2°36.872 7.8123 3.438997 33.043614 0.392394
2009-12-18 09:30:37 51°16.446 2°36.812 7.8068 3.437857 33.035813 0.392394
2009-12-18 09:31:38 51°16.419 2°36.752 7.8051 3.437546 33.035983 0.392394
2009-12-18 09:32:38 51°16.393 2°36.695 7.8017 3.437236 33.035281 0.392394
2009-12-18 09:33:38 51°16.367 2°36.637 7.7946 3.437029 33.034813 0.392394
2009-12-18 09:34:38 51°16.339 2°36.579 7.7852 3.436614 33.036492 0.392394
2009-12-18 09:35:38 51°16.313 2°36.518 7.789 3.435993 33.03596 0.35757
2009-12-18 09:36:38 51°16.287 2°36.458 7.7813 3.435682 33.03613 0.35757
2009-12-18 09:37:38 51°16.241 2°36.406 7.7805 3.435475 33.03479 0.35757
2009-12-18 09:38:38 51°16.121 2°36.352 7.7884 3.435164 33.035833 0.35757
2009-12-18 09:39:38 51°15.94 2°36.304 7.7968 3.4362 33.036428 0.392394
2009-12-18 09:40:37 51°15.741 2°36.259 7.7984 3.437236 33.037024 0.392394
2009-12-18 09:41:38 51°15.54 2°36.221 7.7935 3.436821 33.03696 0.392394
2009-12-18 09:42:38 51°15.347 2°36.224 7.7876 3.437547 33.051676 0.427218
2009-12-18 09:43:38 51°15.156 2°36.249 7.7836 3.438893 33.070418 0.427218
2009-12-18 09:44:38 51°14.968 2°36.294 7.7844 3.440965 33.096036 0.462042
2009-12-18 09:45:38 51°14.787 2°36.349 7.7893 3.443451 33.117344 0.462042
2009-12-18 09:46:37 51°14.611 2°36.411 7.7905 3.444798 33.129104 0.462042
2009-12-18 09:47:38 51°14.44 2°36.505 7.7916 3.446145 33.141736 0.462042
2009-12-18 09:48:38 51°14.294 2°36.65 7.789 3.447284 33.159157 0.496866
2009-12-18 09:49:38 51°14.154 2°36.815 7.7881 3.448113 33.161882 0.496866
2009-12-18 09:50:38 51°14.013 2°36.983 7.7849 3.448631 33.168289 0.496866
2009-12-18 09:51:38 51°13.872 2°37.149 7.7514 3.448009 33.172157 0.496866
2009-12-18 09:52:38 51°13.733 2°37.318 7.6671 3.443763 33.170573 0.462042
2009-12-18 09:53:37 51°13.596 2°37.486 7.558 3.434959 33.164105 0.427218
2009-12-18 09:54:38 51°13.455 2°37.656 7.4124 3.417143 33.081961 0.427218
2009-12-18 09:55:37 51°13.319 2°37.827 7.3362 3.398085 32.987831 0.427218
2009-12-18 09:56:38 51°13.166 2°37.977 7.2717 3.383688 32.908345 0.462042
2009-12-18 09:57:38 51°12.977 2°37.976 7.2249 3.37302 32.843359 0.462042
2009-12-18 09:58:38 51°12.79 2°37.879 7.19 3.363181 32.781034 0.496866
2009-12-18 09:59:38 51°12.616 2°37.727 7.1481 3.355517 32.728934 0.496866
2009-12-18 10:00:38 51°12.44 2°37.572 7.1207 3.347543 32.685719 0.496866
2009-12-18 10:01:38 51°12.267 2°37.415 7.1169 3.343607 32.661563 0.53169
2009-12-18 10:02:38 51°12.093 2°37.258 7.1174 3.342675 32.657622 0.566514
2009-12-18 10:03:38 51°11.921 2°37.102 7.1258 3.344021 32.669572 0.601338
2009-12-18 10:04:38 51°11.747 2°36.947 7.1321 3.346921 32.69043 0.636162
2009-12-18 10:05:38 51°11.574 2°36.787 7.1274 3.349925 32.721212 0.670986
2009-12-18 10:06:38 51°11.401 2°36.631 7.112 3.351686 32.748228 0.636162
2009-12-18 10:07:38 51°11.229 2°36.47 7.1053 3.352929 32.780246 0.566514
2009-12-18 10:08:38 51°11.054 2°36.317 7.0857 3.355311 32.81316 0.496866
2009-12-18 10:09:38 51°10.881 2°36.16 7.0806 3.357279 32.843367 0.496866
2009-12-18 10:10:38 51°10.711 2°36.005 7.0737 3.358833 32.866435 0.462042
2009-12-18 10:11:38 51°10.538 2°35.847 7.0903 3.360904 32.886262 0.462042
2009-12-18 10:12:38 51°10.364 2°35.69 7.105 3.365047 32.925914 0.462042
2009-12-18 10:13:37 51°10.196 2°35.539 7.1159 3.370743 32.969982 0.462042
2009-12-18 10:14:38 51°10.019 2°35.399 7.1262 3.37644 33.019358 0.427218
2009-12-18 10:15:37 51°9.838 2°35.419 7.1288 3.379443 33.048395 0.462042
2009-12-18 10:16:38 51°9.676 2°35.535 7.1058 3.379858 33.058235 0.427218
2009-12-18 10:17:38 51°9.537 2°35.705 7.0839 3.376958 33.047241 0.427218
2009-12-18 10:18:38 51°9.472 2°35.933 7.0888 3.371779 33.005247 0.392394
2009-12-18 10:19:38 51°9.512 2°36.169 7.081 3.366911 32.94971 0.427218
2009-12-18 10:20:37 51°9.576 2°36.398 7.0685 3.363804 32.9213 0.427218
2009-12-18 10:21:38 51°9.645 2°36.636 7.0668 3.360904 32.896911 0.427218
2009-12-18 10:22:38 51°9.712 2°36.872 7.059 3.357901 32.870504 0.427218
2009-12-18 10:23:38 51°9.776 2°37.105 7.0449 3.355104 32.849002 0.427218
2009-12-18 10:24:38 51°9.841 2°37.34 7.0373 3.352204 32.82814 0.427218
2009-12-18 10:25:38 51°9.908 2°37.575 7.0272 3.349822 32.811124 0.427218
2009-12-18 10:26:37 51°9.974 2°37.809 7.0218 3.348476 32.800925 0.392394
2009-12-18 10:27:37 51°10.04 2°38.049 7.0197 3.346922 32.792018 0.392394
2009-12-18 10:28:38 51°10.109 2°38.291 7.0194 3.346197 32.785911 0.392394
2009-12-18 10:29:37 51°10.175 2°38.52 7.0189 3.346094 32.784786 0.392394
2009-12-18 10:30:38 51°10.243 2°38.76 7.0133 3.345887 32.784306 0.392394
2009-12-18 10:31:37 51°10.308 2°38.997 7.004 3.345058 32.783276 0.392394
2009-12-18 10:32:38 51°10.375 2°39.243 6.9982 3.344644 32.780545 0.392394
2009-12-18 10:33:38 51°10.448 2°39.476 6.9996 3.34423 32.7787 0.392394
2009-12-18 10:34:38 51°10.529 2°39.703 6.9992 3.343712 32.776615 0.392394
2009-12-18 10:35:38 51°10.611 2°39.933 6.9986 3.343401 32.773237 0.392394
2009-12-18 10:36:38 51°10.693 2°40.162 7.0013 3.34278 32.770025 0.392394
2009-12-18 10:37:38 51°10.776 2°40.392 6.9904 3.342366 32.76552 0.35757
2009-12-18 10:38:37 51°10.854 2°40.621 6.9742 3.340812 32.756601 0.392394
2009-12-18 10:39:37 51°10.934 2°40.857 6.965 3.338327 32.741085 0.35757
2009-12-18 10:40:37 51°11.016 2°41.092 6.9329 3.335427 32.723711 0.392394
2009-12-18 10:41:38 51°11.099 2°41.33 6.8816 3.329731 32.693605 0.427218
2009-12-18 10:42:38 51°11.202 2°41.539 6.8394 3.322793 32.658778 0.427218
2009-12-18 10:43:38 51°11.291 2°41.705 6.7546 3.313265 32.605395 0.462042
2009-12-18 10:44:38 51°11.305 2°41.794 6.6995 3.299389 32.523874 0.496866
2009-12-18 10:45:37 51°11.269 2°41.823 6.6705 3.288205 32.459173 0.53169
2009-12-18 10:46:38 51°11.25 2°41.804 6.6663 3.283338 32.426282 0.53169
2009-12-18 10:47:38 51°11.235 2°41.78 6.6357 3.281164 32.414875 0.53169
2009-12-18 10:48:38 51°11.219 2°41.76 6.6302 3.277436 32.393535 0.53169
2009-12-18 10:49:38 51°11.202 2°41.741 6.6345 3.276815 32.387614 0.53169
2009-12-18 10:50:38 51°11.18 2°41.729 6.6393 3.276711 32.385594 0.496866
2009-12-18 10:51:37 51°11.154 2°41.764 6.64 3.277229 32.385951 0.496866
2009-12-18 10:52:37 51°11.177 2°41.88 6.6449 3.277436 32.391763 0.496866
2009-12-18 10:53:38 51°11.237 2°42.11 6.6589 3.280646 32.413635 0.496866
2009-12-18 10:54:38 51°11.304 2°42.361 6.6333 3.279611 32.406724 0.496866
2009-12-18 10:55:38 51°11.374 2°42.612 6.5854 3.274537 32.375941 0.53169
2009-12-18 10:56:38 51°11.42 2°42.878 6.5507 3.266771 32.32623 0.566514
2009-12-18 10:57:38 51°11.45 2°43.152 6.5097 3.258694 32.276577 0.566514
2009-12-18 10:58:37 51°11.473 2°43.425 6.4848 3.251135 32.228102 0.601338
2009-12-18 10:59:37 51°11.502 2°43.703 6.4468 3.243991 32.181454 0.636162
2009-12-18 11:00:38 51°11.532 2°43.986 6.4227 3.237053 32.132599 0.636162
2009-12-18 11:01:38 51°11.562 2°44.265 6.3799 3.23053 32.085594 0.670986
2009-12-18 11:02:37 51°11.596 2°44.536 6.3434 3.222351 32.027366 0.70581
2009-12-18 11:03:38 51°11.631 2°44.819 6.3061 3.212825 31.963936 0.740634
2009-12-18 11:04:38 51°11.664 2°45.097 6.2831 3.205164 31.913008 0.740634
2009-12-18 11:05:37 51°11.696 2°45.37 6.252 3.199366 31.873751 0.775459
2009-12-18 11:06:37 51°11.728 2°45.648 6.2383 3.196156 31.854205 0.775459
2009-12-18 11:07:38 51°11.76 2°45.933 6.2196 3.193361 31.840982 0.810283
2009-12-18 11:08:38 51°11.795 2°46.213 6.2177 3.190462 31.827487 0.810283
2009-12-18 11:09:38 51°11.829 2°46.488 6.2003 3.190773 31.829154 0.810283
2009-12-18 11:10:37 51°11.863 2°46.755 6.2207 3.188702 31.819509 0.810283
2009-12-18 11:11:37 51°11.898 2°47.029 6.2669 3.193775 31.847318 0.775459
2009-12-18 11:12:38 51°11.943 2°47.301 6.283 3.19978 31.87303 0.775459
2009-12-18 11:13:38 51°12.033 2°47.535 6.2715 3.196259 31.831562 0.740634
2009-12-18 11:14:37 51°12.126 2°47.767 6.271 3.192532 31.796617 0.775459
2009-12-18 11:15:37 51°12.208 2°48.013 6.2477 3.191911 31.789766 0.810283
2009-12-18 11:16:37 51°12.28 2°48.263 6.1916 3.186113 31.752185 0.810283
2009-12-18 11:17:37 51°12.354 2°48.518 6.1618 3.178349 31.713057 0.810283
2009-12-18 11:18:37 51°12.439 2°48.766 6.1448 3.173794 31.689983 0.810283
2009-12-18 11:19:38 51°12.532 2°49.012 6.1248 3.170274 31.669535 0.810283
2009-12-18 11:20:38 51°12.624 2°49.252 6.111 3.164683 31.620894 0.845107
2009-12-18 11:21:37 51°12.713 2°49.489 6.0969 3.15785 31.564629 0.879931
2009-12-18 11:22:38 51°12.804 2°49.733 6.08 3.151639 31.510813 0.845107
2009-12-18 11:23:38 51°12.897 2°49.979 6.0769 3.14698 31.468898 0.914755
2009-12-18 11:24:38 51°12.987 2°50.227 6.0746 3.143667 31.434865 0.914755
2009-12-18 11:25:38 51°13.073 2°50.482 6.0821 3.1417 31.414849 0.914755
2009-12-18 11:26:38 51°13.157 2°50.74 6.0878 3.141493 31.40644 0.949579
2009-12-18 11:27:37 51°13.238 2°50.995 6.0862 3.141804 31.402013 0.914755
2009-12-18 11:28:37 51°13.319 2°51.253 6.0627 3.139423 31.38703 0.879931
2009-12-18 11:29:37 51°13.402 2°51.511 6.0603 3.135903 31.363803 0.879931
2009-12-18 11:30:38 51°13.498 2°51.761 6.0455 3.134972 31.361351 0.879931
2009-12-18 11:31:38 51°13.596 2°52 5.9867 3.130934 31.336737 0.879931
2009-12-18 11:32:38 51°13.696 2°52.244 5.9653 3.123378 31.294929 0.845107
2009-12-18 11:33:38 51°13.795 2°52.487 5.9249 3.119341 31.278987 0.845107
2009-12-18 11:34:37 51°13.891 2°52.729 5.8928 3.114061 31.248364 0.810283
2009-12-18 11:35:37 51°13.996 2°52.968 5.8383 3.108989 31.219128 0.775459
2009-12-18 11:36:37 51°14.104 2°53.203 5.764 3.089322 31.059016 0.775459
2009-12-18 11:37:37 51°14.211 2°53.445 5.7516 3.071415 30.918972 0.740634
2009-12-18 11:38:37 51°14.316 2°53.686 5.7383 3.076073 30.975172 0.740634
2009-12-18 11:39:37 51°14.423 2°53.928 5.6617 3.075038 30.99065 0.775459
2009-12-18 11:40:38 51°14.531 2°54.178 5.6204 3.0621 30.903902 0.740634
2009-12-18 11:41:37 51°14.638 2°54.422 5.5848 3.052164 30.835657 0.740634
2009-12-18 11:42:37 51°14.751 2°54.664 5.6052 3.048127 30.807107 0.775459
2009-12-18 11:43:38 51°14.868 2°54.911 5.5848 3.05589 30.895589 0.775459
2009-12-18 11:44:38 51°14.985 2°55.15 5.5782 3.043056 30.766969 0.810283
2009-12-18 11:45:37 51°15.097 2°55.388 5.6165 3.046471 30.800788 0.845107
2009-12-18 11:46:38 51°15.211 2°55.638 5.6528 3.069657 31.025831 0.914755
2009-12-18 11:47:37 51°15.319 2°55.878 5.6713 3.087978 31.205995 0.879931
2009-12-18 11:48:37 51°15.432 2°56.115 5.7083 3.098847 31.300129 0.879931
2009-12-18 11:49:37 51°15.542 2°56.354 5.7408 3.104333 31.329649 0.914755
2009-12-18 11:50:38 51°15.656 2°56.6 5.7448 3.105782 31.326429 0.949579
2009-12-18 11:51:37 51°15.765 2°56.838 5.7575 3.107438 31.336095 0.949579
2009-12-18 11:52:38 51°15.879 2°57.083 5.773 3.109922 31.354111 0.949579
2009-12-18 11:53:38 51°15.992 2°57.326 5.7968 3.113545 31.376 0.914755
2009-12-18 11:54:38 51°16.104 2°57.574 5.8104 3.117168 31.400516 0.845107
2009-12-18 11:55:38 51°16.216 2°57.826 5.8148 3.119756 31.414364 0.845107
2009-12-18 11:56:38 51°16.332 2°58.077 5.8324 3.120274 31.412196 0.914755
2009-12-18 11:57:38 51°16.449 2°58.326 5.867 3.124621 31.441219 0.949579
2009-12-18 11:58:38 51°16.566 2°58.578 5.898 3.132282 31.499143 0.984403
2009-12-18 11:59:38 51°16.681 2°58.829 5.9288 3.140874 31.562061 0.949579
2009-12-18 12:00:38 51°16.797 2°59.078 5.9518 3.152572 31.670916 0.879931
2009-12-18 12:01:38 51°16.913 2°59.324 6.0115 3.161475 31.745079 0.845107
2009-12-18 12:02:38 51°17.026 2°59.571 6.064 3.174209 31.82265 0.810283
2009-12-18 12:03:37 51°17.14 2°59.823 6.0669 3.181456 31.868452 0.810283
2009-12-18 12:04:38 51°17.258 3°0.082 6.0484 3.183216 31.892413 0.775459
2009-12-18 12:05:38 51°17.374 3°0.337 6.0311 3.184148 31.915193 0.740634
2009-12-18 12:06:37 51°17.486 3°0.587 6.0315 3.184873 31.934803 0.740634
2009-12-18 12:07:38 51°17.605 3°0.849 6.0331 3.185908 31.947188 0.70581
2009-12-18 12:08:37 51°17.72 3°1.102 6.0394 3.187358 31.963282 0.70581
2009-12-18 12:09:38 51°17.84 3°1.366 6.0426 3.189325 31.977996 0.70581
2009-12-18 12:10:37 51°17.954 3°1.62 6.0544 3.19005 31.981586 0.70581
2009-12-18 12:11:37 51°18.07 3°1.879 6.0764 3.190257 31.974085 0.70581
2009-12-18 12:12:37 51°18.189 3°2.136 6.1101 3.191292 31.96154 0.740634
2009-12-18 12:13:38 51°18.308 3°2.4 6.1463 3.19388 31.955565 0.70581
2009-12-18 12:14:38 51°18.428 3°2.661 6.1688 3.197193 31.960293 0.70581
2009-12-18 12:15:37 51°18.546 3°2.919 6.1843 3.200506 31.975663 0.70581
2009-12-18 12:16:38 51°18.669 3°3.187 6.2012 3.203922 32.00015 0.670986
2009-12-18 12:17:37 51°18.789 3°3.447 6.2155 3.208167 32.03556 0.670986
2009-12-18 12:18:38 51°18.912 3°3.714 6.2276 3.212723 32.071722 0.670986
2009-12-18 12:19:38 51°19.031 3°3.977 6.2451 3.215622 32.089551 0.670986
2009-12-18 12:20:38 51°19.153 3°4.243 6.2594 3.217485 32.097706 0.670986
2009-12-18 12:21:37 51°19.269 3°4.506 6.2797 3.219349 32.102302 0.670986
2009-12-18 12:22:38 51°19.391 3°4.78 6.2874 3.220902 32.10258 0.670986
2009-12-18 12:23:37 51°19.511 3°5.044 6.2953 3.220902 32.094592 0.670986
2009-12-18 12:24:37 51°19.638 3°5.299 6.3008 3.220488 32.081151 0.670986
2009-12-18 12:25:37 51°19.791 3°5.518 6.303 3.219349 32.065925 0.670986
2009-12-18 12:26:37 51°19.946 3°5.731 6.3016 3.216967 32.036111 0.636162
2009-12-18 12:27:38 51°20.1 3°5.95 6.2964 3.212515 31.989659 0.636162
2009-12-18 12:28:38 51°20.254 3°6.168 6.2995 3.208787 31.952969 0.636162
2009-12-18 12:29:38 51°20.402 3°6.391 6.3117 3.206717 31.924839 0.636162
2009-12-18 12:30:38 51°20.551 3°6.611 6.3292 3.206924 31.913894 0.601338
2009-12-18 12:31:38 51°20.704 3°6.83 6.3446 3.20713 31.899435 0.566514
2009-12-18 12:32:37 51°20.853 3°7.046 6.3698 3.20713 31.884472 0.566514
2009-12-18 12:33:38 51°21.006 3°7.272 6.3803 3.209615 31.894233 0.566514
2009-12-18 12:34:37 51°21.137 3°7.518 6.3997 3.213135 31.914498 0.53169
2009-12-18 12:35:37 51°21.264 3°7.784 6.4141 3.216034 31.933192 0.53169
2009-12-18 12:36:38 51°21.396 3°8.055 6.4242 3.21914 31.957672 0.53169
2009-12-18 12:37:38 51°21.525 3°8.323 6.4285 3.221832 31.97935 0.53169
2009-12-18 12:38:38 51°21.656 3°8.594 6.4402 3.224835 32.007078 0.53169
2009-12-18 12:39:37 51°21.786 3°8.861 6.4554 3.229287 32.040159 0.496866
2009-12-18 12:40:38 51°21.92 3°9.138 6.4534 3.232808 32.067387 0.462042
2009-12-18 12:41:37 51°22.049 3°9.412 6.4608 3.234568 32.092908 0.462042
2009-12-18 12:42:38 51°22.182 3°9.699 6.4682 3.23871 32.127834 0.462042
2009-12-18 12:43:37 51°22.287 3°10.008 6.4724 3.240988 32.144916 0.427218
2009-12-18 12:44:37 51°22.373 3°10.342 6.471 3.242334 32.159708 0.427218
2009-12-18 12:45:37 51°22.437 3°10.687 6.4733 3.243887 32.174124 0.427218
2009-12-18 12:46:37 51°22.484 3°11.037 6.4669 3.243783 32.172986 0.427218
2009-12-18 12:47:37 51°22.516 3°11.396 6.4745 3.240366 32.14074 0.427218
2009-12-18 12:48:37 51°22.538 3°11.757 6.483 3.238917 32.116864 0.392394
2009-12-18 12:49:38 51°22.559 3°12.127 6.4778 3.238192 32.107137 0.392394
2009-12-18 12:50:37 51°22.574 3°12.486 6.4915 3.237674 32.096157 0.392394
2009-12-18 12:51:38 51°22.586 3°12.834 6.4931 3.23757 32.084441 0.392394
2009-12-18 12:53:14 51°22.593 3°13.171 6.506 3.235189 32.053014 0.392394
2009-12-18 12:54:15 51°22.594 3°13.254 6.5111 3.234878 32.040806 0.392394
2009-12-18 12:55:18 51°22.608 3°13.292 6.5124 3.234464 32.03802 0.427218
2009-12-18 12:56:15 51°22.617 3°13.342 6.5121 3.234878 32.038167 0.392394
2009-12-18 12:57:14 51°22.623 3°13.402 6.5162 3.234567 32.035638 0.427218
2009-12-18 12:58:14 51°22.625 3°13.464 6.5202 3.234774 32.033514 0.392394
2009-12-18 12:59:14 51°22.602 3°13.547 6.5222 3.234982 32.035785 0.392394
2009-12-18 13:00:14 51°22.603 3°13.71 6.5235 3.235085 32.034284 0.392394
2009-12-18 13:01:14 51°22.684 3°13.785 6.5214 3.234671 32.028861 0.392394
2009-12-18 13:02:14 51°22.836 3°13.776 6.5299 3.235292 32.026887 0.427218
2009-12-18 13:03:14 51°22.99 3°13.691 6.5286 3.236535 32.041392 0.392394
2009-12-18 13:04:14 51°23.128 3°13.565 7.0438 3.240882 31.943637 0.462042
2009-12-18 13:05:14 51°23.276 3°13.455 6.6541 3.266975 32.095576 0.392394
2009-12-18 13:06:14 51°23.432 3°13.355 6.5226 3.252273 32.12418 0.392394
2009-12-18 13:07:14 51°23.59 3°13.257 6.4687 3.248961 32.204218 0.427218
2009-12-18 13:08:14 51°23.747 3°13.159 6.5192 3.257866 32.299382 0.566514
2009-12-18 13:09:14 51°23.903 3°13.059 6.5724 3.266046 32.347526 0.70581
2009-12-18 13:10:14 51°24.061 3°12.962 6.6111 3.274744 32.398602 0.740634
2009-12-18 13:11:14 51°24.219 3°12.862 6.5205 3.278161 32.435189 0.601338
2009-12-18 13:12:14 51°24.375 3°12.759 6.4774 3.26615 32.378854 0.53169
2009-12-18 13:13:14 51°24.523 3°12.634 6.4467 3.262112 32.370034 0.566514
2009-12-18 13:14:14 51°24.66 3°12.483 6.4666 3.262837 32.41275 0.740634
2009-12-18 13:15:14 51°24.796 3°12.322 6.4857 3.266668 32.41658 0.670986
2009-12-18 13:16:14 51°24.931 3°12.156 6.475 3.277023 32.52424 0.601338
2009-12-18 13:17:14 51°25.063 3°11.988 6.4277 3.294317 32.725362 0.53169
2009-12-18 13:18:14 51°25.196 3°11.816 6.3791 3.301464 32.850132 0.496866
2009-12-18 13:19:14 51°25.326 3°11.641 6.3525 3.300325 32.882833 0.496866
2009-12-18 13:20:14 51°25.458 3°11.467 6.3317 3.297426 32.88072 0.496866
2009-12-18 13:21:14 51°25.587 3°11.292 6.3503 3.297011 32.877955 0.496866
2009-12-18 13:22:14 51°25.717 3°11.117 6.3817 3.299393 32.895213 0.496866
2009-12-18 13:23:14 51°25.846 3°10.943 6.388 3.302914 32.903273 0.462042
2009-12-18 13:24:14 51°25.963 3°10.747 6.41 3.307677 32.915979 0.462042
2009-12-18 13:25:14 51°26.017 3°10.498 6.5231 3.312234 32.926387 0.462042
2009-12-18 13:26:14 51°26.047 3°10.235 6.5882 3.319275 32.95692 0.462042
2009-12-18 13:27:14 51°26.116 3°9.992 6.6176 3.32466 32.971882 0.462042
2009-12-18 13:28:14 51°26.202 3°9.757 6.5725 3.330356 33.009211 0.462042
2009-12-18 13:29:14 51°26.291 3°9.526 6.6466 3.335948 33.034515 0.427218
2009-12-18 13:30:14 51°26.377 3°9.291 6.6932 3.340609 33.060393 0.427218
2009-12-18 13:31:14 51°26.462 3°9.053 6.7032 3.34413 33.069227 0.427218
2009-12-18 13:32:14 51°26.537 3°8.807 6.6751 3.34734 33.065629 0.427218
2009-12-18 13:33:14 51°26.538 3°8.547 6.8682 3.351275 33.094323 0.392394
2009-12-18 13:34:14 51°26.49 3°8.388 6.7976 3.355521 33.107461 0.392394
2009-12-18 13:35:14 51°26.463 3°8.278 6.7164 3.358007 33.137381 0.392394
2009-12-18 13:36:14 51°26.417 3°8.263 6.771 3.359043 33.166787 0.392394
2009-12-18 13:37:14 51°26.407 3°8.288 6.721 3.359768 33.172018 0.392394
2009-12-18 13:38:14 51°26.408 3°8.305 6.5804 3.356765 33.229665 0.35757
2009-12-18 13:39:14 51°26.409 3°8.317 6.5176 3.349724 33.269622 0.35757
2009-12-18 13:40:14 51°26.41 3°8.328 6.4585 3.34641 33.288814 0.322746
2009-12-18 13:41:15 51°26.402 3°8.343 6.4336 3.34465 33.299585 0.287922
2009-12-18 13:42:14 51°26.346 3°8.316 6.4234 3.343407 33.30785 0.287922
2009-12-18 13:43:14 51°26.251 3°8.22 6.5788 3.345271 33.281729 0.322746
2009-12-18 13:44:14 51°26.14 3°8.089 6.6128 3.350967 33.265979 0.35757
2009-12-18 13:45:15 51°26.011 3°7.941 6.5026 3.354695 33.278767 0.35757
2009-12-18 13:46:14 51°25.887 3°7.793 6.6303 3.351795 33.290623 0.35757
2009-12-18 13:47:14 51°25.758 3°7.647 6.62 3.347341 33.211486 0.35757
2009-12-18 13:48:15 51°25.628 3°7.498 6.6304 3.343302 33.114398 0.392394
2009-12-18 13:49:14 51°25.501 3°7.353 6.6604 3.335016 33.02247 0.427218
2009-12-18 13:50:15 51°25.374 3°7.198 6.6587 3.328181 32.934792 0.462042
2009-12-18 13:51:14 51°25.253 3°7.039 6.6459 3.323727 32.864353 0.496866
2009-12-18 13:52:14 51°25.125 3°6.885 6.7404 3.321449 32.843855 0.53169
2009-12-18 13:53:15 51°24.994 3°6.727 6.7798 3.320723 32.776797 0.427218
2009-12-18 13:54:14 51°24.868 3°6.578 6.8157 3.321654 32.722754 0.392394
2009-12-18 13:55:15 51°24.737 3°6.426 6.811 3.314819 32.639208 0.35757
2009-12-18 13:56:14 51°24.617 3°6.267 6.809 3.308087 32.568378 0.392394
2009-12-18 13:57:15 51°24.506 3°6.082 6.8026 3.299906 32.468488 0.427218
2009-12-18 13:58:14 51°24.399 3°5.898 6.7581 3.289447 32.385245 0.496866
2009-12-18 13:59:15 51°24.285 3°5.705 6.774 3.281577 32.324886 0.53169
2009-12-18 14:00:14 51°24.151 3°5.563 6.7792 3.279609 32.294606 0.53169
2009-12-18 14:01:14 51°23.985 3°5.495 6.7409 3.276917 32.275771 0.566514
2009-12-18 14:02:15 51°23.807 3°5.504 6.6955 3.272982 32.250392 0.601338
2009-12-18 14:03:14 51°23.635 3°5.52 6.6518 3.26532 32.205356 0.601338
2009-12-18 14:04:14 51°23.474 3°5.473 6.5675 3.255172 32.155035 0.670986
2009-12-18 14:05:14 51°23.381 3°5.282 6.4481 3.241815 32.095794 0.670986
2009-12-18 14:06:14 51°23.328 3°5.042 6.4241 3.229805 32.047612 0.670986
2009-12-18 14:07:14 51°23.265 3°4.802 6.4145 3.226181 32.020996 0.670986
2009-12-18 14:08:14 51°23.193 3°4.57 6.4548 3.228148 32.025879 0.740634
2009-12-18 14:09:14 51°23.122 3°4.338 6.4609 3.230219 32.038943 0.740634
2009-12-18 14:10:14 51°23.048 3°4.106 6.4311 3.230426 32.043862 0.775459
2009-12-18 14:11:14 51°22.977 3°3.87 6.4124 3.227941 32.037704 0.810283
2009-12-18 14:12:14 51°22.911 3°3.632 6.4273 3.226285 32.032715 0.810283
2009-12-18 14:13:14 51°22.842 3°3.402 6.4109 3.227941 32.028008 0.810283
2009-12-18 14:14:14 51°22.761 3°3.18 6.4223 3.226388 32.02768 0.740634
2009-12-18 14:15:15 51°22.676 3°2.963 6.3661 3.225353 32.018058 0.670986
2009-12-18 14:16:14 51°22.587 3°2.758 6.3572 3.221004 31.996669 0.670986
2009-12-18 14:17:15 51°22.492 3°2.55 6.351 3.216759 31.976397 0.670986
2009-12-18 14:18:14 51°22.402 3°2.343 6.3404 3.215724 31.968524 0.670986
2009-12-18 14:19:15 51°22.309 3°2.129 6.3325 3.213446 31.961958 0.70581
2009-12-18 14:20:14 51°22.217 3°1.924 6.3279 3.211065 31.948952 0.70581
2009-12-18 14:21:14 51°22.123 3°1.712 6.3021 3.208373 31.935162 0.670986
2009-12-18 14:22:15 51°22.032 3°1.494 6.2663 3.205164 31.916536 0.636162
2009-12-18 14:23:14 51°21.945 3°1.286 6.2534 3.201436 31.898361 0.636162
2009-12-18 14:24:15 51°21.85 3°1.071 6.2473 3.198537 31.875194 0.636162
2009-12-18 14:25:14 51°21.758 3°0.864 6.2292 3.195949 31.856328 0.670986
2009-12-18 14:26:15 51°21.666 3°0.647 6.2491 3.193671 31.841766 0.636162
2009-12-18 14:27:14 51°21.58 3°0.438 6.2488 3.192843 31.834385 0.670986
2009-12-18 14:28:14 51°21.488 3°0.232 6.2474 3.193775 31.828807 0.601338
2009-12-18 14:29:14 51°21.4 3°0.022 6.2784 3.194085 31.828711 0.566514
2009-12-18 14:30:14 51°21.309 2°59.814 6.3014 3.196259 31.833322 0.566514
2009-12-18 14:31:15 51°21.223 2°59.599 6.3333 3.200918 31.850359 0.566514
2009-12-18 14:32:14 51°21.134 2°59.393 6.3452 3.203092 31.856719 0.566514
2009-12-18 14:33:15 51°21.046 2°59.181 6.339 3.202678 31.842488 0.566514
2009-12-18 14:34:14 51°20.96 2°58.974 6.3017 3.199676 31.817334 0.53169
2009-12-18 14:35:15 51°20.872 2°58.758 6.2638 3.195638 31.796575 0.496866
2009-12-18 14:36:14 51°20.784 2°58.551 6.2509 3.190047 31.763944 0.496866
2009-12-18 14:37:14 51°20.698 2°58.339 6.2485 3.184767 31.732064 0.496866
2009-12-18 14:38:14 51°20.614 2°58.127 6.2485 3.1828 31.712121 0.496866
2009-12-18 14:39:14 51°20.533 2°57.913 6.2364 3.181868 31.698333 0.462042
2009-12-18 14:40:14 51°20.454 2°57.695 6.2167 3.179176 31.680044 0.462042
2009-12-18 14:41:14 51°20.375 2°57.473 6.2259 3.177209 31.664481 0.496866
2009-12-18 14:42:15 51°20.29 2°57.248 6.2071 3.176278 31.655078 0.462042
2009-12-18 14:43:14 51°20.209 2°57.031 6.2203 3.173793 31.647825 0.496866
2009-12-18 14:44:14 51°20.122 2°56.814 6.193 3.173068 31.641579 0.53169
2009-12-18 14:45:14 51°20.036 2°56.596 6.1806 3.170894 31.637748 0.53169
2009-12-18 14:46:14 51°19.947 2°56.383 6.1729 3.170894 31.63687 0.53169
2009-12-18 14:47:14 51°19.86 2°56.165 6.1731 3.170687 31.637215 0.566514
2009-12-18 14:48:14 51°19.766 2°55.955 6.1739 3.170791 31.640114 0.566514
2009-12-18 14:49:14 51°19.667 2°55.754 6.174 3.171516 31.645486 0.566514
2009-12-18 14:50:14 51°19.558 2°55.563 6.1744 3.17193 31.65006 0.566514
2009-12-18 14:51:14 51°19.444 2°55.379 6.1803 3.172137 31.652348 0.566514
2009-12-18 14:52:14 51°19.322 2°55.209 6.1725 3.17193 31.657085 0.566514
2009-12-18 14:53:14 51°19.194 2°55.05 6.1633 3.171826 31.656819 0.601338
2009-12-18 14:54:14 51°19.064 2°54.889 6.1618 3.171619 31.665073 0.601338
2009-12-18 14:55:14 51°18.937 2°54.728 6.1562 3.172344 31.673083 0.636162
2009-12-18 14:56:14 51°18.809 2°54.564 6.1723 3.173172 31.683116 0.636162
2009-12-18 14:57:14 51°18.679 2°54.403 6.2055 3.176899 31.704079 0.670986
2009-12-18 14:58:15 51°18.549 2°54.238 6.253 3.184043 31.745158 0.670986
2009-12-18 14:59:14 51°18.419 2°54.088 6.3155 3.194189 31.80433 0.670986
2009-12-18 15:00:14 51°18.281 2°53.946 6.3663 3.204956 31.878126 0.636162
2009-12-18 15:01:14 51°18.141 2°53.814 6.4131 3.21562 31.945357 0.601338
2009-12-18 15:02:14 51°18 2°53.68 6.4646 3.225663 32.010899 0.566514
2009-12-18 15:03:14 51°17.854 2°53.561 6.5003 3.234568 32.069093 0.53169
2009-12-18 15:04:14 51°17.7 2°53.463 6.5353 3.242126 32.117706 0.496866
2009-12-18 15:05:14 51°17.54 2°53.376 6.5612 3.248235 32.157402 0.496866
2009-12-18 15:06:14 51°17.381 2°53.306 6.6024 3.25393 32.193393 0.462042
2009-12-18 15:07:14 51°17.214 2°53.265 6.644 3.262421 32.245855 0.427218
2009-12-18 15:08:14 51°17.043 2°53.29 6.6691 3.270601 32.295708 0.392394
2009-12-18 15:09:14 51°16.878 2°53.361 6.6423 3.273397 32.31836 0.35757
2009-12-18 15:10:14 51°16.709 2°53.45 6.5545 3.264492 32.260595 0.322746
2009-12-18 15:11:14 51°16.541 2°53.537 6.8457 0.116104 0.9032 0.914755
2009-12-18 15:12:14 51°16.37 2°53.622 6.9798 0.196594 1.570823 0.914755
2009-12-18 15:13:14 51°16.198 2°53.696 7.1119 0.093256 0.717788 0.914755
2009-12-18 15:14:14 51°16.024 2°53.769 7.2333 0.109929 0.852547 0.879931
2009-12-18 15:15:14 51°15.85 2°53.848 7.3705 0.097578 0.752512 0.914755
2009-12-18 15:16:14 51°15.676 2°53.926 7.4989 0.091197 0.701046 0.914755
2009-12-18 15:17:14 51°15.504 2°54 7.6226 0.136998 1.073201 0.879931
2009-12-18 15:18:15 51°15.33 2°54.056 7.7805 0.097064 0.747918 0.914755
2009-12-18 15:19:14 51°15.159 2°54.089 7.9022 0.098093 0.75601 0.914755
2009-12-18 15:20:15 51°14.984 2°54.132 8.0558 0.273697 2.224305 0.914755
2009-12-18 15:21:14 51°14.825 2°54.231 8.1863 0.078744 0.600485 0.914755
2009-12-18 15:22:14 51°14.695 2°54.432 8.2922 0.082655 0.631206 0.914755
2009-12-18 15:23:14 51°14.57 2°54.65 8.4336 0.094902 0.728978 0.949579
2009-12-18 15:24:14 51°14.447 2°54.87 8.5025 0.092021 0.705797 0.949579
2009-12-18 15:25:14 51°14.334 2°55.097 8.5881 0.240034 1.933326 0.949579
2009-12-18 15:26:14 51°14.229 2°55.308 8.6925 0.119089 0.924321 0.949579
2009-12-18 15:27:14 51°14.102 2°55.438 8.8148 0.084919 0.648643 0.949579
2009-12-18 15:28:14 51°13.982 2°55.524 8.8916 0.088521 0.677355 0.949579
2009-12-18 15:29:14 51°13.855 2°55.607 9.0284 0.085537 0.65343 0.949579
2009-12-18 15:30:14 51°13.756 2°55.693 9.1098 0.097784 0.751393 0.949579
2009-12-18 15:31:14 51°13.707 2°55.794 9.3919 0.051472 0.384763 0.949579
2009-12-18 15:32:14 51°13.676 2°55.892 9.337 0.620605 4.069567 0.949579
2009-12-18 15:33:11 51°13.664 2°55.949 9.5358 0.194425 1.142574 0.70581
2009-12-18 15:35:25 51°13.664 2°55.95 9.6967 0.126392 0.736387 0.601338
2009-12-18 15:36:28 51°13.662 2°55.961 9.7729 0.117232 0.683011 0.636162
2009-12-18 15:37:28 51°13.662 2°55.959 9.8903 0.112086 0.653602 0.670986